Huvudsida
METAR-TAF:

METAR-TAF

Flygplatser :

Loei, Thailand

latitud: 17-27N, longitud: 101-44E, höjd: 253 m

Aktuellt väderrapport

Denna rapport gjordes för 8 timmar och 24 minuter sedan, klockan 12:00 UTC
Stilla vind
Temperatur 30°C
Fuktighet 52%
Tryck 1010 hPa
Sikt 10 km eller mer
Få moln på en höjd av 3000 ft

METAR: VTUL 221200Z 00000KT 9999 FEW030 30/19 Q1010 NOSIG

Tid: 03:24 (20:24 UTC)

Väderprognos

Denna rapport gjordes för 3 timmar och 24 minuter sedan, klockan 17:00 UTC
Prognos gäller från 22 kl. 18 UTC till 23 kl. 18 UTC
Vind 5 kt från syd/sydväst
Sikt: 8000 m
Få moln på en höjd av 3000 ft

TAF: VTUL 221700Z 2218/2318 21005KT 8000 FEW030

Aktuella väderrapporter och prognoser från 4000 flygplatser (METAR- och TAF-rapporter).

De tillgängliga stationerna syns som gula och röda prickar på kartan.

För musen över prickarna för att se namnen på stationerna.

Klicka sedan för att få väderrapporter och prognoser.

För att ändra kartan: Klicka på de gröna knapparna med ett svart kors på för att zooma in; den gröna knappen med ett streck på för att zooma ut; eller på de gröna pilarna för angränsande kartor.


METAR-TAF: